Canisteo, New York
Current Conditions -  °F | °C
As of 10:54 AM on Monday 24 Nov 2014 (Local Time) from KDSV Reporting Station
Scattered Clouds Scattered Clouds  
Wind Chill: 66°   Ceiling: Unl
Heat Index: 66°   Visibility: 10mi
Dew Point: 50°   Wind: 12mph
Humidity: 56%   Direction: 170°S
Pressure: 29.37"   Gusts: 29mph
Location:  42.27°N, 77.61°W
Report Text: KDSV 241554Z AUTO 17010G25KT 10SM SCT065 19/10 A2937 RMK AO2 PK WND 17028/1544 SLP952 T01890100
Loading
Personal Weather Stations






























Interactive Weather Map New forecast layout! Learn more

10-Day Weather Forecast

Advertisements
Track Severe Weather on mobile